| time (UTC) | temp C | wind direction | speed KPH | gust KPH | rain 1hr cm | rain 24hr cm | rain mn cm | humidity % | barometer mb |
| 20260507214025 | 15 | 317 | 4.8 | 17.7 | 0.00 | 0.00 | 0.00 | 65 | 1014.6 |
| 20260507212003 | 15 | 291 | 3.2 | 12.9 | 0.00 | 0.00 | 0.00 | 66 | 1014.1 |
| 20260507210004 | 14 | 152 | 0.0 | 4.8 | 0.00 | 0.00 | 0.00 | 73 | 1013.9 |
| 20260507204005 | 14 | 152 | 0.0 | 1.6 | 0.00 | 0.00 | 0.00 | 77 | 1013.8 |
| 20260507202005 | 14 | 0 | 0.0 | 0.0 | 0.00 | 0.00 | 0.00 | 75 | 1013.6 |
| 20260507200004 | 14 | 0 | 0.0 | 0.0 | 0.00 | 0.00 | 0.00 | 75 | 1013.4 |
| 20260507194004 | 15 | 0 | 0.0 | 0.0 | 0.00 | 0.00 | 0.00 | 75 | 1013.3 |
| 20260507192024 | 14 | 0 | 0.0 | 0.0 | 0.00 | 0.00 | 0.00 | 73 | 1013.2 |
| 20260507190005 | 15 | 152 | 0.0 | 1.6 | 0.00 | 0.00 | 0.00 | 74 | 1013.0 |
| 20260507184004 | 15 | 152 | 0.0 | 8.0 | 0.00 | 0.00 | 0.00 | 70 | 1012.8 |
| 20260507182025 | 15 | 0 | 0.0 | 0.0 | 0.00 | 0.00 | 0.00 | 69 | 1012.4 |
| 20260507180004 | 15 | 152 | 0.0 | 1.6 | 0.00 | 0.00 | 0.00 | 67 | 1012.2 |
| 20260507174003 | 16 | 154 | 3.2 | 11.3 | 0.00 | 0.00 | 0.00 | 66 | 1012.0 |
| 20260507172004 | 16 | 189 | 4.8 | 20.9 | 0.00 | 0.00 | 0.00 | 65 | 1012.0 |
| 20260507170003 | 18 | 223 | 3.2 | 16.1 | 0.00 | 0.00 | 0.00 | 50 | 1011.8 |
| 20260507164004 | 19 | 319 | 1.6 | 8.0 | 0.00 | 0.00 | 0.00 | 50 | 1011.5 |
| 20260507162005 | 19 | 319 | 1.6 | 6.4 | 0.00 | 0.00 | 0.00 | 49 | 1011.3 |
| 20260507160003 | 20 | 319 | 1.6 | 8.0 | 0.00 | 0.00 | 0.00 | 49 | 1011.2 |
| 20260507154006 | 21 | 319 | 3.2 | 9.7 | 0.00 | 0.00 | 0.00 | 47 | 1011.3 |
| 20260507152003 | 21 | 285 | 4.8 | 14.5 | 0.00 | 0.00 | 0.00 | 43 | 1011.4 |
| 20260507150024 | 21 | 277 | 1.6 | 9.7 | 0.00 | 0.00 | 0.00 | 44 | 1011.1 |
| 20260507144005 | 21 | 279 | 1.6 | 6.4 | 0.00 | 0.00 | 0.00 | 45 | 1011.1 |
| 20260507142003 | 22 | 279 | 3.2 | 11.3 | 0.00 | 0.00 | 0.00 | 41 | 1011.1 |
| 20260507140006 | 22 | 292 | 1.6 | 12.9 | 0.00 | 0.00 | 0.00 | 43 | 1011.0 |
| 20260507134003 | 22 | 280 | 4.8 | 12.9 | 0.00 | 0.00 | 0.00 | 43 | 1011.3 |
| 20260507132005 | 22 | 258 | 4.8 | 16.1 | 0.00 | 0.00 | 0.00 | 44 | 1011.4 |
| 20260507130025 | 22 | 272 | 4.8 | 14.5 | 0.00 | 0.00 | 0.00 | 45 | 1011.4 |
| 20260507124004 | 22 | 222 | 4.8 | 11.3 | 0.00 | 0.00 | 0.00 | 47 | 1011.6 |
| 20260507122004 | 20 | 224 | 3.2 | 11.3 | 0.00 | 0.00 | 0.00 | 49 | 1011.5 |
| 20260507120004 | 20 | 231 | 1.6 | 9.7 | 0.00 | 0.00 | 0.00 | 50 | 1011.7 |
| 20260507114004 | 19 | 236 | 1.6 | 9.7 | 0.00 | 0.00 | 0.00 | 55 | 1011.9 |
| 20260507112005 | 19 | 243 | 3.2 | 14.5 | 0.00 | 0.00 | 0.00 | 54 | 1012.0 |
| 20260507110003 | 18 | 252 | 3.2 | 8.0 | 0.00 | 0.00 | 0.00 | 56 | 1012.1 |
| 20260507104024 | 18 | 260 | 3.2 | 14.5 | 0.00 | 0.00 | 0.00 | 58 | 1012.0 |
| 20260507102004 | 18 | 261 | 3.2 | 11.3 | 0.00 | 0.00 | 0.00 | 61 | 1012.4 |
| 20260507100004 | 18 | 290 | 3.2 | 11.3 | 0.00 | 0.00 | 0.00 | 62 | 1012.2 |
| 20260507094004 | 17 | 302 | 1.6 | 8.0 | 0.00 | 0.00 | 0.00 | 65 | 1012.1 |
| 20260507092024 | 17 | 303 | 3.2 | 11.3 | 0.00 | 0.00 | 0.00 | 65 | 1012.0 |
| 20260507090004 | 16 | 306 | 1.6 | 11.3 | 0.00 | 0.00 | 0.00 | 68 | 1011.9 |
| 20260507084003 | 16 | 305 | 4.8 | 11.3 | 0.00 | 0.00 | 0.00 | 69 | 1011.6 |
| 20260507082004 | 16 | 297 | 3.2 | 8.0 | 0.00 | 0.00 | 0.00 | 69 | 1011.4 |
| 20260507080004 | 16 | 297 | 3.2 | 11.3 | 0.00 | 0.00 | 0.00 | 70 | 1011.4 |
| 20260507074003 | 16 | 302 | 4.8 | 11.3 | 0.00 | 0.00 | 0.00 | 71 | 1011.3 |
| 20260507072004 | 15 | 320 | 6.4 | 16.1 | 0.00 | 0.00 | 0.00 | 73 | 1011.1 |
| 20260507070009 | 15 | 306 | 4.8 | 12.9 | 0.00 | 0.00 | 0.00 | 76 | 1011.0 |
| 20260507064005 | 15 | 308 | 3.2 | 11.3 | 0.00 | 0.00 | 0.00 | 77 | 1011.0 |
| 20260507062003 | 15 | 311 | 3.2 | 11.3 | 0.00 | 0.00 | 0.00 | 78 | 1010.7 |
| 20260507060004 | 14 | 311 | 4.8 | 8.0 | 0.00 | 0.00 | 0.00 | 80 | 1010.5 |
| 20260507054005 | 14 | 311 | 3.2 | 9.7 | 0.00 | 0.00 | 0.00 | 81 | 1010.3 |
| 20260507052004 | 13 | 311 | 3.2 | 6.4 | 0.00 | 0.00 | 0.00 | 83 | 1010.2 |
| 20260507050004 | 13 | 311 | 4.8 | 9.7 | 0.00 | 0.00 | 0.00 | 84 | 1009.8 |
| 20260507044003 | 13 | 311 | 3.2 | 8.0 | 0.00 | 0.00 | 0.00 | 87 | 1009.6 |
| 20260507042003 | 13 | 312 | 4.8 | 12.9 | 0.00 | 0.00 | 0.00 | 87 | 1009.4 |
| 20260507040004 | 13 | 309 | 4.8 | 11.3 | 0.00 | 0.00 | 0.00 | 87 | 1009.1 |
| 20260507034004 | 13 | 309 | 3.2 | 8.0 | 0.00 | 0.00 | 0.00 | 87 | 1008.7 |
| 20260507032024 | 13 | 312 | 3.2 | 11.3 | 0.00 | 0.00 | 0.00 | 86 | 1008.6 |
| 20260507030005 | 13 | 314 | 1.6 | 14.5 | 0.00 | 0.00 | 0.00 | 87 | 1008.5 |
| 20260507024003 | 13 | 315 | 1.6 | 4.8 | 0.00 | 0.00 | 0.00 | 86 | 1008.3 |
| 20260507022003 | 13 | 315 | 1.6 | 6.4 | 0.00 | 0.00 | 0.00 | 85 | 1008.2 |
| 20260507020004 | 14 | 304 | 6.4 | 14.5 | 0.00 | 0.00 | 0.00 | 84 | 1008.1 |
| 20260507014005 | 14 | 288 | 8.0 | 19.3 | 0.00 | 0.00 | 0.00 | 83 | 1007.9 |
| 20260507012003 | 14 | 302 | 8.0 | 17.7 | 0.00 | 0.00 | 0.00 | 82 | 1007.6 |
| 20260507010024 | 14 | 275 | 8.0 | 14.5 | 0.00 | 0.00 | 0.00 | 81 | 1007.2 |
| 20260507004003 | 14 | 267 | 3.2 | 9.7 | 0.00 | 0.00 | 0.00 | 81 | 1006.7 |
| 20260507002004 | 14 | 267 | 4.8 | 12.9 | 0.00 | 0.00 | 0.00 | 80 | 1006.9 |
| 20260507000005 | 15 | 265 | 4.8 | 11.3 | 0.00 | 0.00 | 0.00 | 80 | 1006.7 |
| 20260506234003 | 15 | 247 | 4.8 | 11.3 | 0.00 | 0.00 | 0.00 | 80 | 1006.6 |
| 20260506232025 | 15 | 197 | 1.6 | 4.8 | 0.00 | 0.00 | 0.00 | 78 | 1006.1 |
| 20260506230003 | 15 | 191 | 0.0 | 1.6 | 0.00 | 0.00 | 0.00 | 76 | 1005.9 |
| 20260506224024 | 15 | 189 | 1.6 | 9.7 | 0.00 | 0.00 | 0.00 | 74 | 1005.8 |
| 20260506222004 | 16 | 186 | 0.0 | 1.6 | 0.00 | 0.00 | 0.00 | 73 | 1005.7 |
| 20260506220005 | 16 | 182 | 1.6 | 6.4 | 0.00 | 0.00 | 0.00 | 72 | 1005.5 |